Lyndon Station, Wisconsin
Current Conditions -  °F | °C
As of 4:15 AM on Saturday 22 Nov 2014 (Local Time) from KC35 Reporting Station
Haze Haze  
Wind Chill: 22°   Ceiling: 500
Heat Index: 31°   Visibility: 3mi
Dew Point: 30°   Wind: 10mph
Humidity: 96%   Direction: 220°SW
Pressure: 29.94"   Gusts: NA
Location:  43.71°N, 89.9°W
Report Text: KC35 221015Z AUTO 22009KT 3SM BR OVC005 00/M01 A2994 RMK AO2 T10051010
Loading
Personal Weather Stations






























Interactive Weather Map New forecast layout! Learn more

10-Day Weather Forecast

Advertisements
Track Severe Weather on mobile